Time;durP1;ratioP1;P1;durP2;ratioP2;P2;SDS_P1;SDS_P2;PMS_P1;PMS_P2;Temp;Humidity;BMP_temperature;BMP_pressure;BME280_temperature;BME280_humidity;BME280_pressure;Samples;Min_cycle;Max_cycle;Signal;HPM_P1;HPM_P2
2024/01/16 00:01:43;;;;;;;1.97;1.27;;;1.00;99.90;;;;;;5068383;28;20262;-52
2024/01/16 00:04:09;;;;;;;3.70;1.57;;;1.00;99.90;;;;;;5062671;28;20303;-51
2024/01/16 00:06:41;;;;;;;1.63;1.17;;;1.20;99.90;;;;;;5081325;28;20203;-53
2024/01/16 00:09:07;;;;;;;3.73;1.23;;;1.30;99.90;;;;;;5086770;27;20201;-53
2024/01/16 00:11:32;;;;;;;1.63;1.10;;;1.00;99.90;;;;;;5064583;28;21188;-55
2024/01/16 00:13:58;;;;;;;1.23;1.10;;;0.90;99.90;;;;;;5063560;28;20207;-53
2024/01/16 00:16:24;;;;;;;3.87;1.70;;;1.20;99.90;;;;;;5082109;28;20204;-53
2024/01/16 00:18:49;;;;;;;2.57;1.40;;;1.40;99.90;;;;;;5063013;28;20193;-53
2024/01/16 00:21:15;;;;;;;6.10;1.50;;;1.50;99.90;;;;;;5093065;28;20226;-53
2024/01/16 00:23:40;;;;;;;3.77;1.23;;;1.70;99.90;;;;;;5091653;27;20340;-53
2024/01/16 00:26:06;;;;;;;3.00;1.37;;;1.70;99.90;;;;;;5088678;28;20277;-53
2024/01/16 00:28:32;;;;;;;5.07;1.33;;;1.60;99.90;;;;;;5082682;28;20703;-61
2024/01/16 00:30:58;;;;;;;1.03;1.00;;;1.40;99.90;;;;;;5061757;28;20195;-53
2024/01/16 00:33:24;;;;;;;4.37;1.63;;;1.40;99.90;;;;;;5082429;28;20574;-52
2024/01/16 00:35:49;;;;;;;3.03;1.53;;;1.60;99.90;;;;;;5082183;28;20200;-52
2024/01/16 00:38:15;;;;;;;1.53;1.20;;;1.50;99.90;;;;;;5082423;28;20575;-53
2024/01/16 00:40:40;;;;;;;4.00;1.40;;;1.60;99.90;;;;;;5080920;28;20331;-53
2024/01/16 00:43:06;;;;;;;2.03;0.80;;;1.50;99.90;;;;;;5083610;28;20193;-52
2024/01/16 00:45:31;;;;;;;1.83;1.47;;;1.40;99.90;;;;;;5087358;27;20308;-53
2024/01/16 00:47:57;;;;;;;1.90;1.33;;;1.30;99.90;;;;;;5078717;28;20204;-55
2024/01/16 00:50:24;;;;;;;1.60;1.40;;;1.20;99.90;;;;;;5077358;28;20218;-55
2024/01/16 00:52:49;;;;;;;4.60;1.47;;;1.10;99.90;;;;;;5080472;28;20305;-55
2024/01/16 00:55:15;;;;;;;1.83;1.10;;;0.90;99.90;;;;;;5075759;28;20277;-55
2024/01/16 00:57:40;;;;;;;6.00;2.17;;;0.90;99.90;;;;;;5080976;28;20225;-63
2024/01/16 01:00:07;;;;;;;2.03;1.63;;;0.70;99.90;;;;;;5085615;28;20276;-56
2024/01/16 01:02:32;;;;;;;3.33;1.43;;;0.50;99.90;;;;;;5081743;28;20222;-53
2024/01/16 01:04:58;;;;;;;6.50;1.70;;;0.20;99.90;;;;;;5078351;28;20226;-53
2024/01/16 01:07:25;;;;;;;1.37;1.00;;;0.20;99.90;;;;;;5082009;28;20647;-53
2024/01/16 01:09:50;;;;;;;2.40;1.40;;;0.20;99.90;;;;;;5081842;27;20220;-51
2024/01/16 01:12:16;;;;;;;1.40;0.83;;;0.10;99.90;;;;;;5084466;27;20275;-51
2024/01/16 01:14:41;;;;;;;1.00;0.90;;;0.00;99.90;;;;;;5082442;28;20190;-52
2024/01/16 01:19:39;;;;;;;0.63;0.63;;;0.00;99.90;;;;;;5017205;28;20323;-52
2024/01/16 01:22:04;;;;;;;2.27;0.93;;;0.00;99.90;;;;;;5023244;28;20224;-53
2024/01/16 01:24:30;;;;;;;2.47;1.20;;;0.00;99.90;;;;;;5021003;28;20207;-60
2024/01/16 01:26:56;;;;;;;1.67;1.30;;;0.10;99.90;;;;;;5019472;28;20312;-59
2024/01/16 01:29:21;;;;;;;2.93;1.20;;;0.20;99.90;;;;;;5016098;28;20192;-51
2024/01/16 01:31:50;;;;;;;1.23;0.87;;;0.10;99.90;;;;;;5015542;28;20211;-51
2024/01/16 01:34:15;;;;;;;1.47;1.07;;;0.10;99.90;;;;;;5014609;28;20204;-51
2024/01/16 01:36:41;;;;;;;1.20;0.93;;;0.20;99.90;;;;;;5015606;28;20206;-51
2024/01/16 01:39:06;;;;;;;3.77;1.70;;;0.30;99.90;;;;;;5016530;28;20198;-51
2024/01/16 01:41:32;;;;;;;1.67;0.70;;;0.40;99.90;;;;;;5014352;28;20224;-53
2024/01/16 01:43:57;;;;;;;3.30;1.17;;;0.40;99.90;;;;;;5018831;28;20207;-52
2024/01/16 01:46:23;;;;;;;1.97;1.20;;;0.50;99.90;;;;;;5032907;28;20254;-61
2024/01/16 01:48:49;;;;;;;3.17;1.00;;;0.40;99.90;;;;;;5018515;28;20221;-60
2024/01/16 01:51:18;;;;;;;1.87;1.43;;;0.40;99.90;;;;;;5012400;28;20201;-62
2024/01/16 01:53:44;;;;;;;1.67;1.43;;;0.50;99.90;;;;;;5002728;28;20216;-61
2024/01/16 01:56:18;;;;;;;1.20;1.00;;;0.50;99.90;;;;;;5001310;28;20229;-54
2024/01/16 01:58:46;;;;;;;0.77;0.70;;;0.50;99.90;;;;;;5012980;28;20716;-50
2024/01/16 02:01:13;;;;;;;1.27;0.97;;;0.50;99.90;;;;;;4997011;28;20288;-50
2024/01/16 02:03:44;;;;;;;2.50;1.07;;;0.50;99.90;;;;;;4996541;28;20205;-51
2024/01/16 02:06:11;;;;;;;4.23;1.40;;;0.50;99.90;;;;;;4995264;28;20274;-51
2024/01/16 02:08:37;;;;;;;3.23;1.03;;;0.50;99.90;;;;;;4997422;28;20200;-57
2024/01/16 02:11:02;;;;;;;2.70;1.03;;;0.60;99.90;;;;;;4992265;28;21078;-50
2024/01/16 02:13:28;;;;;;;3.03;1.57;;;0.60;99.90;;;;;;4992021;28;20205;-51
2024/01/16 02:15:54;;;;;;;1.87;1.27;;;0.70;99.90;;;;;;4992256;28;20211;-50
2024/01/16 02:18:20;;;;;;;3.30;1.27;;;0.70;99.90;;;;;;5009425;28;20778;-51
2024/01/16 02:20:47;;;;;;;2.93;1.27;;;0.90;99.90;;;;;;4993377;28;20217;-50
2024/01/16 02:23:14;;;;;;;1.20;1.10;;;1.00;99.90;;;;;;4999187;28;20903;-50
2024/01/16 02:25:42;;;;;;;1.20;1.10;;;1.20;99.90;;;;;;4994651;28;20232;-51
2024/01/16 02:28:07;;;;;;;2.10;1.40;;;1.30;99.90;;;;;;5010861;28;21145;-51
2024/01/16 02:30:33;;;;;;;2.20;0.97;;;1.30;99.90;;;;;;4994180;28;20253;-51
2024/01/16 02:32:59;;;;;;;2.63;1.30;;;1.30;99.90;;;;;;4997746;28;20294;-51
2024/01/16 02:35:24;;;;;;;2.70;1.40;;;1.20;99.90;;;;;;4994055;28;20214;-51
2024/01/16 02:37:50;;;;;;;1.30;1.20;;;1.00;99.90;;;;;;4996855;28;20263;-52
2024/01/16 02:40:15;;;;;;;2.30;1.20;;;1.00;99.90;;;;;;4996417;28;20200;-50
2024/01/16 02:42:41;;;;;;;2.53;1.50;;;1.10;99.90;;;;;;4994124;28;20223;-50
2024/01/16 02:45:07;;;;;;;1.83;1.17;;;1.10;99.90;;;;;;4994954;28;20203;-50
2024/01/16 02:47:33;;;;;;;3.73;1.83;;;0.90;99.90;;;;;;4995021;28;20612;-50
2024/01/16 02:49:59;;;;;;;4.50;1.80;;;0.70;99.90;;;;;;4997523;28;20216;-50
2024/01/16 02:52:25;;;;;;;2.70;1.53;;;0.70;99.90;;;;;;4996839;28;20726;-50
2024/01/16 02:54:50;;;;;;;2.23;1.03;;;0.70;99.90;;;;;;4999417;28;20265;-49
2024/01/16 02:57:16;;;;;;;1.93;1.40;;;0.80;99.90;;;;;;4995336;28;20208;-50
2024/01/16 02:59:44;;;;;;;2.37;1.33;;;0.70;99.90;;;;;;4994188;28;20251;-50
2024/01/16 03:02:11;;;;;;;3.30;1.40;;;0.80;99.90;;;;;;4993821;28;20250;-50
2024/01/16 03:04:36;;;;;;;1.30;1.23;;;0.60;99.90;;;;;;4994424;28;20290;-50
2024/01/16 03:07:02;;;;;;;2.43;1.80;;;0.50;99.90;;;;;;4995124;28;20257;-50
2024/01/16 03:09:28;;;;;;;1.43;1.43;;;0.50;99.90;;;;;;4997446;28;20217;-50
2024/01/16 03:11:53;;;;;;;3.73;1.50;;;0.30;99.90;;;;;;4994182;28;20216;-50
2024/01/16 03:14:19;;;;;;;1.83;1.67;;;0.20;99.90;;;;;;5002626;28;20751;-49
2024/01/16 03:16:44;;;;;;;1.27;1.17;;;0.10;99.90;;;;;;4995980;28;21163;-50
2024/01/16 03:19:11;;;;;;;1.97;1.80;;;0.30;99.90;;;;;;4994888;28;20309;-50
2024/01/16 03:21:37;;;;;;;2.47;1.70;;;0.00;99.90;;;;;;4996428;28;20220;-50
2024/01/16 03:24:03;;;;;;;3.23;1.37;;;-0.10;99.90;;;;;;4995367;28;20202;-50
2024/01/16 03:26:28;;;;;;;5.37;1.60;;;-0.20;99.90;;;;;;4992986;28;20207;-50
2024/01/16 03:28:54;;;;;;;2.63;1.63;;;0.00;99.90;;;;;;5000978;28;20198;-50
2024/01/16 03:31:21;;;;;;;3.13;1.40;;;-0.10;99.90;;;;;;4998283;28;20724;-50
2024/01/16 03:33:46;;;;;;;2.03;1.70;;;0.20;99.90;;;;;;4992754;28;20218;-49
2024/01/16 03:36:12;;;;;;;2.13;1.63;;;0.60;99.90;;;;;;4995870;28;20208;-51
2024/01/16 03:38:39;;;;;;;2.83;1.70;;;0.70;99.90;;;;;;4996420;28;20197;-50
2024/01/16 03:41:06;;;;;;;3.23;1.87;;;0.60;99.90;;;;;;4993058;28;20260;-49
2024/01/16 03:43:35;;;;;;;3.40;2.00;;;0.70;99.90;;;;;;4999597;28;20194;-50
2024/01/16 03:46:01;;;;;;;2.27;1.97;;;0.50;99.90;;;;;;4997797;28;20735;-50
2024/01/16 03:48:26;;;;;;;1.67;1.57;;;0.60;99.90;;;;;;4991955;28;20213;-50
2024/01/16 03:50:53;;;;;;;1.70;1.60;;;0.50;99.90;;;;;;4991558;28;20305;-52
2024/01/16 03:53:19;;;;;;;4.67;1.63;;;0.30;99.90;;;;;;4996882;28;20297;-51
2024/01/16 03:55:44;;;;;;;3.20;1.70;;;-0.20;99.90;;;;;;4995088;28;20276;-51
2024/01/16 03:58:10;;;;;;;4.53;2.37;;;-0.60;99.90;;;;;;5013725;28;20197;-50
2024/01/16 04:00:35;;;;;;;2.57;2.03;;;-0.70;99.90;;;;;;4998162;28;20286;-51
2024/01/16 04:03:01;;;;;;;4.10;2.00;;;-0.70;99.90;;;;;;4999526;28;20229;-50
2024/01/16 04:05:26;;;;;;;4.20;2.07;;;-0.70;99.90;;;;;;4993917;28;20207;-50
2024/01/16 04:07:52;;;;;;;3.20;2.50;;;-0.70;99.90;;;;;;4994031;28;20321;-49
2024/01/16 04:10:18;;;;;;;3.93;2.53;;;-0.50;99.90;;;;;;5001089;28;20201;-49
2024/01/16 04:12:43;;;;;;;4.03;3.27;;;-0.40;99.90;;;;;;4997202;28;20280;-49
2024/01/16 04:15:09;;;;;;;3.03;2.20;;;-0.40;99.90;;;;;;4987966;28;20197;-50
2024/01/16 04:17:35;;;;;;;4.03;2.37;;;-0.50;99.90;;;;;;4996236;28;20239;-49
2024/01/16 04:20:00;;;;;;;5.07;2.30;;;-0.70;99.90;;;;;;4997143;28;20805;-49
2024/01/16 04:22:26;;;;;;;2.67;2.47;;;-0.70;99.90;;;;;;4997828;28;20215;-49
2024/01/16 04:24:51;;;;;;;3.10;2.33;;;-0.80;99.90;;;;;;4998385;28;20196;-49
2024/01/16 04:27:17;;;;;;;5.27;2.57;;;-0.90;99.90;;;;;;4994528;28;20205;-50
2024/01/16 04:29:43;;;;;;;6.60;2.17;;;-1.00;99.90;;;;;;4997499;28;20933;-49
2024/01/16 04:32:08;;;;;;;2.33;2.10;;;-1.10;99.90;;;;;;4990503;28;20989;-50
2024/01/16 04:34:34;;;;;;;2.83;1.93;;;-1.20;99.90;;;;;;4997202;28;20287;-50
2024/01/16 04:36:59;;;;;;;4.20;1.67;;;-1.30;99.90;;;;;;4995927;28;20202;-51
2024/01/16 04:39:25;;;;;;;3.90;2.00;;;-1.30;99.90;;;;;;4996578;28;20670;-50
2024/01/16 04:41:50;;;;;;;1.93;1.80;;;-1.30;99.90;;;;;;4996805;28;20717;-50
2024/01/16 04:44:16;;;;;;;5.83;2.50;;;-1.30;99.90;;;;;;4997567;28;20287;-50
2024/01/16 04:46:41;;;;;;;3.20;2.07;;;-1.30;99.90;;;;;;4996433;28;20241;-50
2024/01/16 04:49:07;;;;;;;2.53;2.33;;;-1.30;99.90;;;;;;4995960;28;20797;-50
2024/01/16 04:51:33;;;;;;;4.07;2.30;;;-1.30;99.90;;;;;;4994041;28;20197;-51
2024/01/16 04:53:58;;;;;;;3.67;2.27;;;-1.30;99.90;;;;;;4996534;28;20686;-51
2024/01/16 04:56:23;;;;;;;5.57;2.90;;;-1.30;99.90;;;;;;4999437;28;20620;-50
2024/01/16 04:58:49;;;;;;;2.93;2.23;;;-1.20;99.90;;;;;;4998158;28;20192;-50
2024/01/16 05:01:14;;;;;;;5.30;2.63;;;-1.30;99.90;;;;;;4996525;28;20216;-50
2024/01/16 05:03:40;;;;;;;5.53;3.13;;;-1.40;99.90;;;;;;4999036;28;20205;-50
2024/01/16 05:06:15;;;;;;;2.80;2.50;;;-1.40;99.90;;;;;;4999237;28;20208;-50
2024/01/16 05:08:41;;;;;;;6.30;2.73;;;-1.40;99.90;;;;;;4991764;28;20208;-51
2024/01/16 05:11:07;;;;;;;4.07;3.40;;;-1.40;99.90;;;;;;4996170;28;20304;-52
2024/01/16 05:13:33;;;;;;;3.37;3.13;;;-1.30;99.90;;;;;;4994791;28;20307;-51
2024/01/16 05:15:58;;;;;;;4.57;2.87;;;-1.20;99.90;;;;;;4996128;28;20655;-50
2024/01/16 05:18:24;;;;;;;5.23;3.60;;;-1.10;99.90;;;;;;4997295;28;20944;-50
2024/01/16 05:20:49;;;;;;;4.77;3.40;;;-1.20;99.90;;;;;;4993887;28;20209;-50
2024/01/16 05:23:15;;;;;;;6.43;3.80;;;-1.30;99.90;;;;;;4997483;28;20208;-50
2024/01/16 05:25:41;;;;;;;7.40;3.63;;;-1.20;99.90;;;;;;4999186;28;20215;-51
2024/01/16 05:28:06;;;;;;;7.90;3.47;;;-1.30;99.90;;;;;;4995872;28;20206;-50
2024/01/16 05:30:33;;;;;;;6.57;3.97;;;-1.30;99.90;;;;;;4998148;28;20298;-50
2024/01/16 05:33:00;;;;;;;5.03;3.27;;;-1.30;99.90;;;;;;5000987;28;20210;-50
2024/01/16 05:35:27;;;;;;;4.50;3.63;;;-1.40;99.90;;;;;;4996039;28;20279;-49
2024/01/16 05:37:53;;;;;;;6.07;3.20;;;-1.50;99.90;;;;;;4995282;28;20546;-50
2024/01/16 05:40:18;;;;;;;6.17;3.67;;;-1.60;99.90;;;;;;4995861;28;20243;-50
2024/01/16 05:42:44;;;;;;;6.23;3.50;;;-1.50;99.90;;;;;;4996523;28;20240;-50
2024/01/16 05:45:09;;;;;;;5.70;3.57;;;-1.60;99.90;;;;;;5000597;28;20205;-50
2024/01/16 05:47:35;;;;;;;3.80;3.30;;;-1.70;99.90;;;;;;4995364;28;20263;-50
2024/01/16 05:50:01;;;;;;;9.10;4.00;;;-1.60;99.90;;;;;;4996824;28;20696;-51
2024/01/16 05:52:26;;;;;;;5.20;4.70;;;-1.60;99.90;;;;;;5002016;28;20204;-57
2024/01/16 05:54:52;;;;;;;6.37;3.60;;;-1.50;99.90;;;;;;4996150;28;20622;-57
2024/01/16 05:57:18;;;;;;;5.60;4.57;;;-1.50;99.90;;;;;;4997473;28;20849;-52
2024/01/16 05:59:44;;;;;;;5.33;3.50;;;-1.60;99.90;;;;;;4998722;28;20232;-51
2024/01/16 06:02:10;;;;;;;4.90;3.93;;;-1.70;99.90;;;;;;4992162;28;20307;-52
2024/01/16 06:04:36;;;;;;;8.87;4.83;;;-1.70;99.90;;;;;;4997440;28;20622;-51
2024/01/16 06:07:02;;;;;;;7.07;4.50;;;-1.60;99.90;;;;;;5001988;28;20212;-51
2024/01/16 06:09:27;;;;;;;10.53;4.50;;;-1.50;99.90;;;;;;4999530;28;20196;-52
2024/01/16 06:11:53;;;;;;;6.30;4.20;;;-1.50;99.90;;;;;;5001018;28;20205;-51
2024/01/16 06:14:21;;;;;;;4.87;4.07;;;-1.40;99.90;;;;;;4986352;28;20233;-51
2024/01/16 06:16:48;;;;;;;3.83;3.53;;;-1.50;99.90;;;;;;4997399;28;20229;-51
2024/01/16 06:19:13;;;;;;;8.00;4.20;;;-1.60;99.90;;;;;;5001762;28;20234;-51
2024/01/16 06:21:39;;;;;;;10.77;4.53;;;-1.50;99.90;;;;;;4992245;28;20212;-51
2024/01/16 06:24:05;;;;;;;5.50;4.20;;;-1.50;99.90;;;;;;4992522;28;20274;-52
2024/01/16 06:26:31;;;;;;;6.47;3.93;;;-1.40;99.90;;;;;;4991104;28;20271;-52
2024/01/16 06:28:57;;;;;;;6.87;4.60;;;-1.40;99.90;;;;;;4995260;28;20204;-52
2024/01/16 06:31:24;;;;;;;4.93;3.60;;;-1.40;99.90;;;;;;4997866;28;20196;-52
2024/01/16 06:33:49;;;;;;;6.63;4.13;;;-1.50;99.90;;;;;;4994670;28;20683;-51
2024/01/16 06:36:16;;;;;;;8.07;4.40;;;-1.50;99.90;;;;;;4994741;28;20242;-50
2024/01/16 06:38:41;;;;;;;8.23;4.20;;;-1.20;99.90;;;;;;4995477;28;20201;-51
2024/01/16 06:41:07;;;;;;;6.43;4.20;;;-0.90;99.90;;;;;;5008966;28;20287;-51
2024/01/16 06:43:32;;;;;;;4.43;3.70;;;-0.80;99.90;;;;;;4995323;28;20201;-52
2024/01/16 06:45:58;;;;;;;5.90;3.30;;;-0.70;99.90;;;;;;4996174;28;20859;-51
2024/01/16 06:48:24;;;;;;;4.90;3.30;;;-0.70;99.90;;;;;;4992068;28;20197;-51
2024/01/16 06:50:49;;;;;;;8.93;4.23;;;-0.70;99.90;;;;;;4996227;28;20231;-51
2024/01/16 06:53:15;;;;;;;7.90;3.27;;;-0.70;99.90;;;;;;4996400;28;20201;-51
2024/01/16 06:55:40;;;;;;;6.77;3.83;;;-0.90;99.90;;;;;;4994256;28;20202;-52
2024/01/16 06:58:06;;;;;;;4.17;3.50;;;-1.00;99.90;;;;;;4994090;28;20198;-52
2024/01/16 07:00:31;;;;;;;6.63;3.43;;;-1.00;99.90;;;;;;4993362;28;20208;-52
2024/01/16 07:02:57;;;;;;;4.00;3.40;;;-0.90;99.90;;;;;;4997070;28;20286;-52
2024/01/16 07:05:23;;;;;;;9.57;3.90;;;-0.70;99.90;;;;;;5002190;28;20253;-52
2024/01/16 07:07:49;;;;;;;9.03;4.10;;;-0.80;99.90;;;;;;4993101;28;20255;-51
2024/01/16 07:10:18;;;;;;;6.00;3.67;;;-0.60;99.90;;;;;;4989188;28;20213;-49
2024/01/16 07:12:44;;;;;;;6.60;3.43;;;-0.80;99.90;;;;;;4997320;28;20219;-51
2024/01/16 07:15:10;;;;;;;6.87;3.57;;;-0.80;99.90;;;;;;4989398;28;20229;-55
2024/01/16 07:17:35;;;;;;;7.67;3.90;;;-0.70;99.90;;;;;;4991872;28;20674;-50
2024/01/16 07:20:02;;;;;;;6.50;4.17;;;-0.80;99.90;;;;;;4993142;28;20209;-59
2024/01/16 07:22:27;;;;;;;8.87;4.00;;;-0.50;99.90;;;;;;4994503;28;20311;-51
2024/01/16 07:24:53;;;;;;;5.63;4.03;;;-0.30;99.90;;;;;;5001488;28;20730;-50
2024/01/16 07:27:18;;;;;;;5.57;3.97;;;-0.10;99.90;;;;;;4997271;28;20219;-51
2024/01/16 07:29:43;;;;;;;5.03;4.00;;;-0.20;99.90;;;;;;4994659;28;20231;-52
2024/01/16 07:32:10;;;;;;;5.10;3.53;;;-0.40;99.90;;;;;;4993370;28;20270;-54
2024/01/16 07:34:36;;;;;;;4.00;3.60;;;-0.40;99.90;;;;;;4992395;28;20245;-52
2024/01/16 07:37:02;;;;;;;10.73;5.03;;;-0.10;99.90;;;;;;4998912;28;20287;-51
2024/01/16 07:39:27;;;;;;;4.80;4.00;;;-0.10;99.90;;;;;;4996615;28;20200;-52
2024/01/16 07:41:53;;;;;;;8.17;4.60;;;-0.10;99.90;;;;;;4989367;28;20761;-51
2024/01/16 07:44:18;;;;;;;5.90;4.10;;;-0.20;99.90;;;;;;4996662;28;20199;-51
2024/01/16 07:46:44;;;;;;;5.57;4.40;;;-0.20;99.90;;;;;;4991602;28;20204;-51
2024/01/16 07:49:09;;;;;;;11.57;4.53;;;0.00;99.90;;;;;;4995931;28;20200;-50
2024/01/16 07:51:35;;;;;;;11.80;4.97;;;-0.10;99.90;;;;;;4989864;28;20204;-50
2024/01/16 07:54:08;;;;;;;5.57;3.80;;;-0.40;99.90;;;;;;4992059;28;20211;-50
2024/01/16 07:56:35;;;;;;;8.03;4.70;;;-0.10;99.90;;;;;;4994113;28;20280;-50
2024/01/16 07:59:01;;;;;;;7.83;3.57;;;-0.30;99.90;;;;;;4992821;28;20313;-50
2024/01/16 08:01:28;;;;;;;4.60;3.80;;;-0.50;99.90;;;;;;4991884;28;20310;-50
2024/01/16 08:03:54;;;;;;;5.63;3.07;;;-0.40;99.90;;;;;;4995809;28;20203;-51
2024/01/16 08:06:20;;;;;;;7.43;3.87;;;-0.30;99.90;;;;;;4995786;28;20210;-51
2024/01/16 08:08:46;;;;;;;6.53;3.73;;;-0.30;99.90;;;;;;4992263;28;20276;-51
2024/01/16 08:11:11;;;;;;;3.47;2.83;;;-0.60;99.90;;;;;;4994033;28;20573;-51
2024/01/16 08:13:37;;;;;;;7.30;3.40;;;-0.20;99.90;;;;;;4991175;28;20213;-50
2024/01/16 08:16:02;;;;;;;8.47;3.40;;;0.00;99.90;;;;;;4987970;28;20311;-51
2024/01/16 08:18:28;;;;;;;5.37;2.90;;;-0.20;99.90;;;;;;4993546;28;20228;-51
2024/01/16 08:20:53;;;;;;;4.17;3.60;;;-0.20;99.90;;;;;;4998911;28;20289;-51
2024/01/16 08:23:21;;;;;;;5.60;3.03;;;-0.20;99.90;;;;;;4996053;28;20204;-51
2024/01/16 08:25:46;;;;;;;7.60;3.43;;;0.20;99.90;;;;;;4993964;28;20211;-51
2024/01/16 08:28:11;;;;;;;8.70;3.73;;;0.10;99.90;;;;;;4996310;28;20201;-51
2024/01/16 08:30:37;;;;;;;5.47;3.30;;;-0.30;99.90;;;;;;4992366;28;20682;-49
2024/01/16 08:33:03;;;;;;;5.87;3.40;;;-0.40;99.90;;;;;;4996113;28;20208;-50
2024/01/16 08:35:28;;;;;;;4.47;3.63;;;-0.30;99.90;;;;;;4991946;28;20717;-50
2024/01/16 08:37:54;;;;;;;6.50;3.70;;;-0.60;99.90;;;;;;4996614;28;20583;-52
2024/01/16 08:40:19;;;;;;;5.53;3.43;;;-0.70;99.90;;;;;;4998956;28;20256;-50
2024/01/16 08:42:45;;;;;;;9.33;4.07;;;-0.80;99.90;;;;;;4994526;28;20221;-50
2024/01/16 08:45:10;;;;;;;4.57;4.17;;;-0.80;99.90;;;;;;4994795;28;20197;-50
2024/01/16 08:47:36;;;;;;;6.40;4.07;;;-0.90;99.90;;;;;;4994034;28;20260;-51
2024/01/16 08:50:02;;;;;;;6.97;4.07;;;-0.80;99.90;;;;;;4982909;28;20220;-50
2024/01/16 08:52:27;;;;;;;6.83;5.07;;;-0.80;99.90;;;;;;4999721;28;20215;-50
2024/01/16 08:54:53;;;;;;;4.57;4.17;;;-0.70;99.90;;;;;;4995003;28;20516;-50
2024/01/16 08:57:18;;;;;;;7.47;4.50;;;-0.60;99.90;;;;;;4998151;28;20285;-51
2024/01/16 08:59:44;;;;;;;6.93;4.90;;;-0.50;99.90;;;;;;4990957;28;20603;-51
2024/01/16 09:02:09;;;;;;;6.87;4.10;;;-0.50;99.90;;;;;;5008581;28;20626;-51
2024/01/16 09:04:35;;;;;;;5.57;4.37;;;-0.30;99.90;;;;;;4996781;28;20685;-51
2024/01/16 09:07:01;;;;;;;8.23;4.60;;;0.10;99.90;;;;;;4997218;28;20194;-51
2024/01/16 09:09:26;;;;;;;12.23;5.00;;;0.10;99.90;;;;;;4997786;28;20837;-51
2024/01/16 09:11:52;;;;;;;10.37;4.43;;;0.20;99.90;;;;;;4996684;28;20286;-51
2024/01/16 09:14:20;;;;;;;5.03;4.47;;;0.10;99.90;;;;;;4992526;28;20204;-51
2024/01/16 09:16:45;;;;;;;6.53;4.63;;;0.30;99.90;;;;;;4994460;28;20288;-51
2024/01/16 09:19:11;;;;;;;5.07;4.33;;;0.40;99.90;;;;;;4995989;28;20364;-51
2024/01/16 09:21:37;;;;;;;8.67;4.50;;;0.50;99.90;;;;;;4997943;28;20228;-51
2024/01/16 09:24:02;;;;;;;6.97;5.00;;;0.40;99.90;;;;;;4985980;28;20236;-50
2024/01/16 09:26:28;;;;;;;10.00;5.10;;;0.10;99.90;;;;;;4994550;28;20200;-50
2024/01/16 09:28:53;;;;;;;5.27;4.13;;;0.20;99.90;;;;;;4996068;28;20196;-51
2024/01/16 09:31:19;;;;;;;8.77;4.93;;;0.50;99.90;;;;;;4994819;28;20192;-50
2024/01/16 09:33:44;;;;;;;7.03;4.63;;;0.80;99.90;;;;;;4995178;28;20201;-59
2024/01/16 09:36:10;;;;;;;5.80;4.17;;;1.00;99.90;;;;;;4994882;28;20283;-58
2024/01/16 09:38:36;;;;;;;6.30;4.67;;;1.20;99.90;;;;;;4994007;28;20255;-51
2024/01/16 09:41:02;;;;;;;5.13;3.83;;;1.10;99.90;;;;;;4994690;28;20259;-51
2024/01/16 09:43:29;;;;;;;6.57;4.17;;;1.10;99.90;;;;;;4997295;28;20541;-51
2024/01/16 09:45:56;;;;;;;5.17;4.43;;;1.00;99.90;;;;;;4998094;28;20201;-51
2024/01/16 09:48:21;;;;;;;5.30;4.23;;;0.90;99.90;;;;;;4998615;28;20414;-52
2024/01/16 09:50:47;;;;;;;7.53;4.60;;;0.80;99.90;;;;;;4988663;28;20494;-51
2024/01/16 09:53:12;;;;;;;6.03;4.27;;;1.10;99.90;;;;;;4992364;28;20766;-51
2024/01/16 09:55:38;;;;;;;10.23;4.30;;;1.10;99.90;;;;;;4994104;28;20202;-54
2024/01/16 09:58:08;;;;;;;4.90;3.80;;;1.10;99.90;;;;;;4995031;28;20675;-52
2024/01/16 10:00:34;;;;;;;4.30;3.90;;;1.20;99.90;;;;;;4993572;28;20206;-55
2024/01/16 10:03:01;;;;;;;9.67;4.57;;;1.30;99.90;;;;;;4994948;28;20228;-60
2024/01/16 10:05:26;;;;;;;5.53;4.00;;;1.10;99.90;;;;;;4990594;28;20276;-53
2024/01/16 10:07:52;;;;;;;6.87;4.83;;;1.40;99.90;;;;;;4995282;28;21043;-53
2024/01/16 10:10:19;;;;;;;11.67;4.70;;;1.50;99.90;;;;;;4996790;28;20241;-53
2024/01/16 10:12:44;;;;;;;7.17;3.83;;;1.50;99.90;;;;;;4996171;28;20213;-52
2024/01/16 10:15:10;;;;;;;7.87;4.10;;;1.50;99.90;;;;;;4992235;28;20213;-53
2024/01/16 10:17:41;;;;;;;3.63;3.33;;;1.50;99.90;;;;;;4997215;28;20724;-51
2024/01/16 10:20:12;;;;;;;4.70;3.77;;;1.50;99.90;;;;;;4993528;28;20774;-52
2024/01/16 10:22:51;;;;;;;4.97;3.90;;;1.50;99.90;;;;;;4992343;28;20221;-54
2024/01/16 10:25:19;;;;;;;8.57;3.80;;;1.60;99.90;;;;;;4996114;28;20224;-50
2024/01/16 10:27:45;;;;;;;7.03;3.63;;;1.60;99.90;;;;;;4994916;28;20996;-60
2024/01/16 10:30:12;;;;;;;6.40;3.63;;;1.60;99.90;;;;;;4991724;28;20224;-54
2024/01/16 10:32:42;;;;;;;2.97;2.60;;;1.70;99.90;;;;;;4993234;28;20202;-55
2024/01/16 10:35:13;;;;;;;3.50;3.20;;;1.80;99.90;;;;;;4994754;28;20213;-53
2024/01/16 10:37:43;;;;;;;3.47;3.17;;;2.00;99.90;;;;;;4993819;28;20206;-52
2024/01/16 10:40:09;;;;;;;3.77;3.47;;;2.10;99.90;;;;;;4996059;28;20227;-58
2024/01/16 10:42:34;;;;;;;3.03;2.83;;;2.10;99.90;;;;;;4994003;28;20253;-53
2024/01/16 10:45:00;;;;;;;4.73;3.17;;;2.10;99.90;;;;;;4992350;28;20215;-54
2024/01/16 10:47:25;;;;;;;3.37;3.07;;;2.10;99.90;;;;;;4993006;28;20211;-51
2024/01/16 10:49:51;;;;;;;4.27;2.50;;;2.10;99.90;;;;;;4987667;28;20209;-56
2024/01/16 10:52:18;;;;;;;4.80;2.63;;;1.90;99.90;;;;;;4992855;28;20264;-52
2024/01/16 10:54:49;;;;;;;3.07;2.60;;;1.80;99.90;;;;;;4993884;28;20228;-52
2024/01/16 10:57:14;;;;;;;3.23;2.93;;;1.80;99.90;;;;;;4997096;28;20198;-52
2024/01/16 10:59:50;;;;;;;3.50;2.73;;;1.80;99.90;;;;;;4998494;28;20217;-60
2024/01/16 11:02:20;;;;;;;2.73;2.00;;;1.70;99.90;;;;;;4995982;28;20223;-60
2024/01/16 11:04:48;;;;;;;2.83;2.43;;;1.70;99.90;;;;;;4995875;28;20314;-67
2024/01/16 11:07:14;;;;;;;4.93;2.37;;;1.70;99.90;;;;;;4998419;28;20984;-61
2024/01/16 11:09:41;;;;;;;5.40;3.00;;;1.70;99.90;;;;;;4993403;28;20198;-53
2024/01/16 11:12:08;;;;;;;3.50;2.43;;;1.70;99.90;;;;;;4992351;28;20681;-60
2024/01/16 11:14:34;;;;;;;3.63;2.33;;;1.80;99.90;;;;;;4989528;28;20619;-52
2024/01/16 11:17:02;;;;;;;3.00;2.20;;;1.70;99.90;;;;;;4992022;28;20568;-52
2024/01/16 11:19:28;;;;;;;5.87;2.23;;;1.60;99.90;;;;;;4997825;28;20267;-55
2024/01/16 11:21:54;;;;;;;4.20;2.60;;;1.70;99.90;;;;;;5000619;28;20220;-59
2024/01/16 11:24:19;;;;;;;2.47;1.93;;;1.60;99.90;;;;;;4993782;28;20217;-60
2024/01/16 11:26:45;;;;;;;3.93;2.43;;;1.60;99.90;;;;;;4994629;28;20219;-60
2024/01/16 11:29:29;;;;;;;7.10;3.27;;;1.60;99.90;;;;;;4990630;28;20210;-59
2024/01/16 11:31:55;;;;;;;3.40;2.50;;;1.70;99.90;;;;;;4990711;28;20270;-59
2024/01/16 11:34:43;;;;;;;3.30;2.83;;;1.70;99.90;;;;;;4992562;28;20210;-52
2024/01/16 11:37:12;;;;;;;3.93;2.50;;;1.80;99.90;;;;;;4991385;28;20300;-52
2024/01/16 11:39:38;;;;;;;6.57;2.83;;;1.70;99.90;;;;;;4991892;28;20557;-51
2024/01/16 11:42:04;;;;;;;5.43;2.97;;;1.70;99.90;;;;;;4992414;28;20280;-51
2024/01/16 11:44:47;;;;;;;7.17;2.70;;;1.60;99.90;;;;;;4995042;28;20200;-52
2024/01/16 11:47:21;;;;;;;7.17;3.80;;;1.60;99.90;;;;;;4992047;28;20202;-53
2024/01/16 11:49:48;;;;;;;5.93;3.43;;;1.60;99.90;;;;;;4986851;28;20217;-51
2024/01/16 11:52:14;;;;;;;3.00;2.80;;;1.70;99.90;;;;;;4992891;28;20705;-52
2024/01/16 11:54:41;;;;;;;7.07;3.17;;;1.60;99.90;;;;;;4992103;28;20204;-52
2024/01/16 11:57:25;;;;;;;4.47;3.20;;;1.50;99.90;;;;;;4992680;28;20198;-52
2024/01/16 12:00:14;;;;;;;5.50;3.50;;;1.60;99.90;;;;;;4994486;28;20667;-52
2024/01/16 12:02:51;;;;;;;6.47;4.57;;;1.60;99.90;;;;;;4994480;28;20992;-52
2024/01/16 12:05:16;;;;;;;7.20;4.67;;;1.70;99.90;;;;;;4987621;28;20346;-51
2024/01/16 12:07:45;;;;;;;11.03;3.70;;;1.80;99.90;;;;;;4994254;28;20734;-51
2024/01/16 12:10:10;;;;;;;8.47;4.47;;;1.80;99.90;;;;;;4990781;28;20202;-52
2024/01/16 12:12:36;;;;;;;5.53;4.27;;;1.70;99.90;;;;;;4994972;28;20495;-53
2024/01/16 12:15:01;;;;;;;5.37;4.63;;;1.70;99.90;;;;;;4991472;28;20222;-59
2024/01/16 12:17:27;;;;;;;5.60;3.90;;;1.70;99.90;;;;;;4992834;28;20197;-53
2024/01/16 12:19:53;;;;;;;12.47;5.17;;;1.70;99.90;;;;;;5000876;28;20206;-53
2024/01/16 12:22:21;;;;;;;10.37;4.57;;;1.70;99.90;;;;;;4997088;28;20213;-52
2024/01/16 12:24:47;;;;;;;6.23;4.20;;;1.80;99.90;;;;;;4999262;28;20200;-51
2024/01/16 12:27:13;;;;;;;5.27;3.87;;;1.90;99.90;;;;;;4992900;28;20206;-51
2024/01/16 12:29:41;;;;;;;8.23;4.70;;;1.40;99.90;;;;;;4993463;28;20256;-52
2024/01/16 12:32:11;;;;;;;9.50;4.07;;;1.60;99.90;;;;;;4992197;28;20680;-53
2024/01/16 12:34:47;;;;;;;5.17;4.20;;;1.60;99.90;;;;;;4992898;28;20206;-53
2024/01/16 12:37:14;;;;;;;7.13;3.70;;;1.60;99.90;;;;;;4995364;28;20197;-53
2024/01/16 12:39:41;;;;;;;5.57;4.03;;;1.70;99.90;;;;;;4995477;28;20210;-53
2024/01/16 12:42:09;;;;;;;9.67;4.40;;;1.80;99.90;;;;;;4992455;28;20228;-51
2024/01/16 12:44:35;;;;;;;9.07;3.00;;;1.80;99.90;;;;;;4991504;28;20648;-59
2024/01/16 12:47:01;;;;;;;6.43;3.97;;;1.90;99.90;;;;;;4993051;28;20203;-58
2024/01/16 12:49:28;;;;;;;6.20;3.80;;;1.90;99.90;;;;;;4989429;28;20276;-53
2024/01/16 12:52:17;;;;;;;7.30;3.17;;;2.00;99.90;;;;;;5007218;22;21024;-55